Talbot, Indiana
Current Conditions -  °F | °C
As of 12:55 PM on Sunday 25 Jan 2015 (Local Time) from KDNV Reporting Station
Moderate Rain Moderate Rain  
Wind Chill: 30°   Ceiling: 4100
Heat Index: 35°   Visibility: 4mi
Dew Point: 35°   Wind: 7mph
Humidity: 97%   Direction: 50°NE
Pressure: 29.62"   Gusts: NA
Location:  40.51°N, 87.45°W
Report Text: KDNV 251755Z AUTO 05006KT 4SM RA OVC041 02/02 A2962 RMK AO2 P0002 60003 T00190015 10019 20010
Loading
Personal Weather Stations






























Interactive Weather Map New forecast layout! Learn more

10-Day Weather Forecast

Advertisements
Track Severe Weather on mobile